sensor_id;sensor_type;location;lat;lon;timestamp;P1;durP1;ratioP1;P2;durP2;ratioP2
30169;SDS011;46426;51.368;5.254;2023-07-28T00:00:04;1.40;;;1.05;;
30169;SDS011;46426;51.368;5.254;2023-07-28T00:00:42;1.30;;;1.17;;
30169;SDS011;46426;51.368;5.254;2023-07-28T00:01:14;1.58;;;1.10;;
30169;SDS011;46426;51.368;5.254;2023-07-28T00:01:46;0.90;;;0.90;;
30169;SDS011;46426;51.368;5.254;2023-07-28T00:02:18;2.13;;;1.10;;
30169;SDS011;46426;51.368;5.254;2023-07-28T00:02:50;1.73;;;1.30;;
30169;SDS011;46426;51.368;5.254;2023-07-28T00:03:23;1.45;;;1.35;;
30169;SDS011;46426;51.368;5.254;2023-07-28T00:03:55;1.02;;;1.02;;
30169;SDS011;46426;51.368;5.254;2023-07-28T00:04:29;1.10;;;1.00;;
30169;SDS011;46426;51.368;5.254;2023-07-28T00:05:01;2.78;;;1.20;;
30169;SDS011;46426;51.368;5.254;2023-07-28T00:05:33;2.80;;;1.00;;
30169;SDS011;46426;51.368;5.254;2023-07-28T00:06:06;1.10;;;1.00;;
30169;SDS011;46426;51.368;5.254;2023-07-28T00:06:38;1.40;;;1.13;;
30169;SDS011;46426;51.368;5.254;2023-07-28T00:07:10;2.33;;;0.90;;
30169;SDS011;46426;51.368;5.254;2023-07-28T00:07:42;1.45;;;1.00;;
30169;SDS011;46426;51.368;5.254;2023-07-28T00:08:14;1.20;;;1.00;;
30169;SDS011;46426;51.368;5.254;2023-07-28T00:08:47;1.55;;;1.20;;
30169;SDS011;46426;51.368;5.254;2023-07-28T00:09:19;1.23;;;1.13;;
30169;SDS011;46426;51.368;5.254;2023-07-28T00:09:51;1.30;;;1.20;;
30169;SDS011;46426;51.368;5.254;2023-07-28T00:10:23;1.70;;;1.08;;
30169;SDS011;46426;51.368;5.254;2023-07-28T00:10:55;3.38;;;1.15;;
30169;SDS011;46426;51.368;5.254;2023-07-28T00:11:27;1.30;;;1.20;;
30169;SDS011;46426;51.368;5.254;2023-07-28T00:12:00;3.03;;;1.17;;
30169;SDS011;46426;51.368;5.254;2023-07-28T00:12:33;1.00;;;0.90;;
30169;SDS011;46426;51.368;5.254;2023-07-28T00:13:06;1.38;;;1.15;;
30169;SDS011;46426;51.368;5.254;2023-07-28T00:13:38;1.27;;;1.00;;
30169;SDS011;46426;51.368;5.254;2023-07-28T00:14:10;1.25;;;1.15;;
30169;SDS011;46426;51.368;5.254;2023-07-28T00:14:42;1.60;;;1.50;;
30169;SDS011;46426;51.368;5.254;2023-07-28T00:15:14;2.05;;;1.00;;
30169;SDS011;46426;51.368;5.254;2023-07-28T00:15:46;1.20;;;1.10;;
30169;SDS011;46426;51.368;5.254;2023-07-28T00:16:18;1.33;;;1.20;;
30169;SDS011;46426;51.368;5.254;2023-07-28T00:16:51;1.20;;;1.10;;
30169;SDS011;46426;51.368;5.254;2023-07-28T00:17:23;1.92;;;1.38;;
30169;SDS011;46426;51.368;5.254;2023-07-28T00:17:56;1.02;;;0.93;;
30169;SDS011;46426;51.368;5.254;2023-07-28T00:18:28;1.42;;;1.27;;
30169;SDS011;46426;51.368;5.254;2023-07-28T00:19:00;1.45;;;1.20;;
30169;SDS011;46426;51.368;5.254;2023-07-28T00:19:32;1.17;;;1.08;;
30169;SDS011;46426;51.368;5.254;2023-07-28T00:20:04;1.58;;;1.17;;
30169;SDS011;46426;51.368;5.254;2023-07-28T00:20:37;1.13;;;0.85;;
30169;SDS011;46426;51.368;5.254;2023-07-28T00:21:09;3.60;;;1.30;;
30169;SDS011;46426;51.368;5.254;2023-07-28T00:21:41;2.40;;;1.17;;
30169;SDS011;46426;51.368;5.254;2023-07-28T00:22:13;1.25;;;1.15;;
30169;SDS011;46426;51.368;5.254;2023-07-28T00:22:45;1.10;;;1.00;;
30169;SDS011;46426;51.368;5.254;2023-07-28T00:23:17;1.30;;;1.20;;
30169;SDS011;46426;51.368;5.254;2023-07-28T00:23:49;1.20;;;1.10;;
30169;SDS011;46426;51.368;5.254;2023-07-28T00:24:21;3.17;;;1.13;;
30169;SDS011;46426;51.368;5.254;2023-07-28T00:24:54;1.63;;;0.93;;
30169;SDS011;46426;51.368;5.254;2023-07-28T00:25:26;1.30;;;1.20;;
30169;SDS011;46426;51.368;5.254;2023-07-28T00:25:58;1.50;;;1.20;;
30169;SDS011;46426;51.368;5.254;2023-07-28T00:26:30;1.15;;;1.05;;
30169;SDS011;46426;51.368;5.254;2023-07-28T00:27:02;1.27;;;1.10;;
30169;SDS011;46426;51.368;5.254;2023-07-28T00:27:34;1.55;;;1.20;;
30169;SDS011;46426;51.368;5.254;2023-07-28T00:28:06;1.50;;;1.10;;
30169;SDS011;46426;51.368;5.254;2023-07-28T00:28:39;1.83;;;1.17;;
30169;SDS011;46426;51.368;5.254;2023-07-28T00:29:11;1.13;;;0.98;;
30169;SDS011;46426;51.368;5.254;2023-07-28T00:29:43;1.40;;;1.30;;
30169;SDS011;46426;51.368;5.254;2023-07-28T00:30:15;1.23;;;1.13;;
30169;SDS011;46426;51.368;5.254;2023-07-28T00:30:50;1.63;;;1.27;;
30169;SDS011;46426;51.368;5.254;2023-07-28T00:31:22;1.52;;;1.30;;
30169;SDS011;46426;51.368;5.254;2023-07-28T00:31:55;1.73;;;1.30;;
30169;SDS011;46426;51.368;5.254;2023-07-28T00:32:27;1.20;;;1.10;;
30169;SDS011;46426;51.368;5.254;2023-07-28T00:32:59;3.30;;;1.08;;
30169;SDS011;46426;51.368;5.254;2023-07-28T00:33:31;0.80;;;0.80;;
30169;SDS011;46426;51.368;5.254;2023-07-28T00:34:03;1.30;;;1.20;;
30169;SDS011;46426;51.368;5.254;2023-07-28T00:34:35;1.42;;;1.33;;
30169;SDS011;46426;51.368;5.254;2023-07-28T00:35:08;1.45;;;1.27;;
30169;SDS011;46426;51.368;5.254;2023-07-28T00:35:40;1.13;;;1.02;;
30169;SDS011;46426;51.368;5.254;2023-07-28T00:36:12;1.45;;;1.23;;
30169;SDS011;46426;51.368;5.254;2023-07-28T00:36:44;1.00;;;1.00;;
30169;SDS011;46426;51.368;5.254;2023-07-28T00:37:18;1.50;;;1.40;;
30169;SDS011;46426;51.368;5.254;2023-07-28T00:37:50;3.25;;;1.23;;
30169;SDS011;46426;51.368;5.254;2023-07-28T00:38:22;1.15;;;1.05;;
30169;SDS011;46426;51.368;5.254;2023-07-28T00:38:54;1.10;;;0.90;;
30169;SDS011;46426;51.368;5.254;2023-07-28T00:39:27;1.48;;;1.25;;
30169;SDS011;46426;51.368;5.254;2023-07-28T00:39:59;1.33;;;1.15;;
30169;SDS011;46426;51.368;5.254;2023-07-28T00:40:34;1.73;;;1.20;;
30169;SDS011;46426;51.368;5.254;2023-07-28T00:41:06;1.60;;;1.40;;
30169;SDS011;46426;51.368;5.254;2023-07-28T00:41:38;1.52;;;1.42;;
30169;SDS011;46426;51.368;5.254;2023-07-28T00:42:11;1.65;;;1.08;;
30169;SDS011;46426;51.368;5.254;2023-07-28T00:42:43;1.95;;;1.27;;
30169;SDS011;46426;51.368;5.254;2023-07-28T00:43:15;1.92;;;1.20;;
30169;SDS011;46426;51.368;5.254;2023-07-28T00:43:47;1.38;;;1.27;;
30169;SDS011;46426;51.368;5.254;2023-07-28T00:44:19;1.40;;;1.20;;
30169;SDS011;46426;51.368;5.254;2023-07-28T00:44:51;1.42;;;1.33;;
30169;SDS011;46426;51.368;5.254;2023-07-28T00:45:24;1.30;;;1.20;;
30169;SDS011;46426;51.368;5.254;2023-07-28T00:45:57;1.50;;;1.40;;
30169;SDS011;46426;51.368;5.254;2023-07-28T00:46:30;1.83;;;1.40;;
30169;SDS011;46426;51.368;5.254;2023-07-28T00:47:02;1.27;;;1.17;;
30169;SDS011;46426;51.368;5.254;2023-07-28T00:47:35;1.20;;;1.10;;
30169;SDS011;46426;51.368;5.254;2023-07-28T00:48:10;1.30;;;1.20;;
30169;SDS011;46426;51.368;5.254;2023-07-28T00:48:43;2.17;;;1.25;;
30169;SDS011;46426;51.368;5.254;2023-07-28T00:49:16;1.75;;;1.30;;
30169;SDS011;46426;51.368;5.254;2023-07-28T00:49:48;3.40;;;1.25;;
30169;SDS011;46426;51.368;5.254;2023-07-28T00:50:21;1.20;;;1.10;;
30169;SDS011;46426;51.368;5.254;2023-07-28T00:50:53;2.03;;;1.15;;
30169;SDS011;46426;51.368;5.254;2023-07-28T00:51:26;1.50;;;1.30;;
30169;SDS011;46426;51.368;5.254;2023-07-28T00:51:58;1.60;;;1.30;;
30169;SDS011;46426;51.368;5.254;2023-07-28T00:52:30;1.70;;;1.25;;
30169;SDS011;46426;51.368;5.254;2023-07-28T00:53:02;1.90;;;1.30;;
30169;SDS011;46426;51.368;5.254;2023-07-28T00:53:34;1.50;;;1.40;;
30169;SDS011;46426;51.368;5.254;2023-07-28T00:54:06;1.40;;;1.30;;
30169;SDS011;46426;51.368;5.254;2023-07-28T00:54:39;1.70;;;1.05;;
30169;SDS011;46426;51.368;5.254;2023-07-28T00:55:11;1.33;;;1.23;;
30169;SDS011;46426;51.368;5.254;2023-07-28T00:55:44;1.27;;;1.17;;
30169;SDS011;46426;51.368;5.254;2023-07-28T00:56:16;1.55;;;1.20;;
30169;SDS011;46426;51.368;5.254;2023-07-28T00:56:49;1.38;;;1.25;;
30169;SDS011;46426;51.368;5.254;2023-07-28T00:57:21;1.42;;;1.33;;
30169;SDS011;46426;51.368;5.254;2023-07-28T00:57:53;1.30;;;1.20;;
30169;SDS011;46426;51.368;5.254;2023-07-28T00:58:25;1.52;;;1.33;;
30169;SDS011;46426;51.368;5.254;2023-07-28T00:58:57;1.50;;;1.40;;
30169;SDS011;46426;51.368;5.254;2023-07-28T00:59:30;1.30;;;1.20;;
30169;SDS011;46426;51.368;5.254;2023-07-28T01:00:02;1.65;;;1.55;;
30169;SDS011;46426;51.368;5.254;2023-07-28T01:00:37;1.40;;;1.30;;
30169;SDS011;46426;51.368;5.254;2023-07-28T01:01:09;1.50;;;1.40;;
30169;SDS011;46426;51.368;5.254;2023-07-28T01:01:41;1.52;;;1.40;;
30169;SDS011;46426;51.368;5.254;2023-07-28T01:02:13;1.33;;;1.20;;
30169;SDS011;46426;51.368;5.254;2023-07-28T01:02:45;3.00;;;1.45;;
30169;SDS011;46426;51.368;5.254;2023-07-28T01:03:18;1.58;;;1.40;;
30169;SDS011;46426;51.368;5.254;2023-07-28T01:03:51;1.60;;;1.10;;
30169;SDS011;46426;51.368;5.254;2023-07-28T01:04:23;1.17;;;1.08;;
30169;SDS011;46426;51.368;5.254;2023-07-28T01:04:55;1.30;;;1.20;;
30169;SDS011;46426;51.368;5.254;2023-07-28T01:05:31;1.40;;;1.30;;
30169;SDS011;46426;51.368;5.254;2023-07-28T01:06:10;1.40;;;1.30;;
30169;SDS011;46426;51.368;5.254;2023-07-28T01:07:24;1.60;;;1.20;;
30169;SDS011;46426;51.368;5.254;2023-07-28T01:08:00;1.20;;;1.10;;
30169;SDS011;46426;51.368;5.254;2023-07-28T01:08:36;1.33;;;1.23;;
30169;SDS011;46426;51.368;5.254;2023-07-28T01:09:14;1.30;;;1.20;;
30169;SDS011;46426;51.368;5.254;2023-07-28T01:10:02;1.38;;;1.27;;
30169;SDS011;46426;51.368;5.254;2023-07-28T01:10:35;1.73;;;1.42;;
30169;SDS011;46426;51.368;5.254;2023-07-28T01:11:07;1.40;;;1.20;;
30169;SDS011;46426;51.368;5.254;2023-07-28T01:11:52;1.98;;;1.35;;
30169;SDS011;46426;51.368;5.254;2023-07-28T01:12:25;1.60;;;1.27;;
30169;SDS011;46426;51.368;5.254;2023-07-28T01:12:58;1.60;;;1.50;;
30169;SDS011;46426;51.368;5.254;2023-07-28T01:13:30;2.78;;;1.50;;
30169;SDS011;46426;51.368;5.254;2023-07-28T01:14:02;1.80;;;1.50;;
30169;SDS011;46426;51.368;5.254;2023-07-28T01:14:34;1.35;;;1.25;;
30169;SDS011;46426;51.368;5.254;2023-07-28T01:15:06;2.20;;;1.30;;
30169;SDS011;46426;51.368;5.254;2023-07-28T01:15:38;1.73;;;1.30;;
30169;SDS011;46426;51.368;5.254;2023-07-28T01:16:11;1.50;;;1.40;;
30169;SDS011;46426;51.368;5.254;2023-07-28T01:16:43;1.30;;;1.20;;
30169;SDS011;46426;51.368;5.254;2023-07-28T01:17:15;2.45;;;1.48;;
30169;SDS011;46426;51.368;5.254;2023-07-28T01:17:48;1.60;;;1.45;;
30169;SDS011;46426;51.368;5.254;2023-07-28T01:18:20;1.48;;;1.27;;
30169;SDS011;46426;51.368;5.254;2023-07-28T01:18:53;2.00;;;1.65;;
30169;SDS011;46426;51.368;5.254;2023-07-28T01:19:25;1.65;;;1.55;;
30169;SDS011;46426;51.368;5.254;2023-07-28T01:19:57;2.35;;;1.55;;
30169;SDS011;46426;51.368;5.254;2023-07-28T01:20:31;1.80;;;1.50;;
30169;SDS011;46426;51.368;5.254;2023-07-28T01:21:05;1.60;;;1.50;;
30169;SDS011;46426;51.368;5.254;2023-07-28T01:21:38;1.50;;;1.40;;
30169;SDS011;46426;51.368;5.254;2023-07-28T01:23:28;2.10;;;1.40;;
30169;SDS011;46426;51.368;5.254;2023-07-28T01:24:51;1.30;;;1.20;;
30169;SDS011;46426;51.368;5.254;2023-07-28T01:26:36;1.42;;;1.33;;
30169;SDS011;46426;51.368;5.254;2023-07-28T01:27:09;1.98;;;1.30;;
30169;SDS011;46426;51.368;5.254;2023-07-28T01:27:42;1.73;;;1.40;;
30169;SDS011;46426;51.368;5.254;2023-07-28T01:28:15;1.63;;;1.35;;
30169;SDS011;46426;51.368;5.254;2023-07-28T01:28:48;2.33;;;1.25;;
30169;SDS011;46426;51.368;5.254;2023-07-28T01:29:20;1.60;;;1.50;;
30169;SDS011;46426;51.368;5.254;2023-07-28T01:29:53;1.40;;;1.30;;
30169;SDS011;46426;51.368;5.254;2023-07-28T01:30:25;4.35;;;1.45;;
30169;SDS011;46426;51.368;5.254;2023-07-28T01:30:59;2.22;;;1.52;;
30169;SDS011;46426;51.368;5.254;2023-07-28T01:31:31;1.95;;;1.42;;
30169;SDS011;46426;51.368;5.254;2023-07-28T01:32:04;1.30;;;1.20;;
30169;SDS011;46426;51.368;5.254;2023-07-28T01:32:36;1.52;;;1.40;;
30169;SDS011;46426;51.368;5.254;2023-07-28T01:33:08;1.55;;;1.45;;
30169;SDS011;46426;51.368;5.254;2023-07-28T01:33:41;1.50;;;1.40;;
30169;SDS011;46426;51.368;5.254;2023-07-28T01:34:13;2.08;;;1.30;;
30169;SDS011;46426;51.368;5.254;2023-07-28T01:34:45;1.40;;;1.20;;
30169;SDS011;46426;51.368;5.254;2023-07-28T01:35:17;1.67;;;1.58;;
30169;SDS011;46426;51.368;5.254;2023-07-28T01:35:49;1.38;;;1.27;;
30169;SDS011;46426;51.368;5.254;2023-07-28T01:36:22;1.50;;;1.40;;
30169;SDS011;46426;51.368;5.254;2023-07-28T01:36:54;1.60;;;1.42;;
30169;SDS011;46426;51.368;5.254;2023-07-28T01:37:26;2.00;;;1.10;;
30169;SDS011;46426;51.368;5.254;2023-07-28T01:37:58;1.65;;;1.50;;
30169;SDS011;46426;51.368;5.254;2023-07-28T01:38:30;3.35;;;1.50;;
30169;SDS011;46426;51.368;5.254;2023-07-28T01:39:03;1.45;;;1.35;;
30169;SDS011;46426;51.368;5.254;2023-07-28T01:39:35;1.65;;;1.23;;
30169;SDS011;46426;51.368;5.254;2023-07-28T01:40:07;1.70;;;1.60;;
30169;SDS011;46426;51.368;5.254;2023-07-28T01:40:39;1.58;;;1.48;;
30169;SDS011;46426;51.368;5.254;2023-07-28T01:41:12;1.73;;;1.45;;
30169;SDS011;46426;51.368;5.254;2023-07-28T01:41:44;1.50;;;1.40;;
30169;SDS011;46426;51.368;5.254;2023-07-28T01:42:16;1.65;;;1.55;;
30169;SDS011;46426;51.368;5.254;2023-07-28T01:42:48;2.15;;;1.48;;
30169;SDS011;46426;51.368;5.254;2023-07-28T01:43:20;1.60;;;1.50;;
30169;SDS011;46426;51.368;5.254;2023-07-28T01:43:52;1.70;;;1.60;;
30169;SDS011;46426;51.368;5.254;2023-07-28T01:44:27;1.55;;;1.45;;
30169;SDS011;46426;51.368;5.254;2023-07-28T01:45:00;1.77;;;1.65;;
30169;SDS011;46426;51.368;5.254;2023-07-28T01:45:33;1.90;;;1.70;;
30169;SDS011;46426;51.368;5.254;2023-07-28T01:46:05;1.50;;;1.40;;
30169;SDS011;46426;51.368;5.254;2023-07-28T01:46:38;2.28;;;1.30;;
30169;SDS011;46426;51.368;5.254;2023-07-28T01:47:11;1.63;;;1.52;;
30169;SDS011;46426;51.368;5.254;2023-07-28T01:47:43;1.65;;;1.55;;
30169;SDS011;46426;51.368;5.254;2023-07-28T01:48:15;1.55;;;1.45;;
30169;SDS011;46426;51.368;5.254;2023-07-28T01:48:47;1.50;;;1.40;;
30169;SDS011;46426;51.368;5.254;2023-07-28T01:49:20;1.77;;;1.67;;
30169;SDS011;46426;51.368;5.254;2023-07-28T01:49:52;1.50;;;1.40;;
30169;SDS011;46426;51.368;5.254;2023-07-28T01:50:24;2.08;;;1.65;;
30169;SDS011;46426;51.368;5.254;2023-07-28T01:50:56;2.00;;;1.60;;
30169;SDS011;46426;51.368;5.254;2023-07-28T01:51:28;1.73;;;1.50;;
30169;SDS011;46426;51.368;5.254;2023-07-28T01:52:00;1.75;;;1.60;;
30169;SDS011;46426;51.368;5.254;2023-07-28T01:52:32;1.63;;;1.52;;
30169;SDS011;46426;51.368;5.254;2023-07-28T01:53:05;1.80;;;1.70;;
30169;SDS011;46426;51.368;5.254;2023-07-28T01:53:37;1.63;;;1.40;;
30169;SDS011;46426;51.368;5.254;2023-07-28T01:54:09;1.58;;;1.48;;
30169;SDS011;46426;51.368;5.254;2023-07-28T01:54:42;2.35;;;1.52;;
30169;SDS011;46426;51.368;5.254;2023-07-28T01:55:14;1.50;;;1.40;;
30169;SDS011;46426;51.368;5.254;2023-07-28T01:55:46;1.70;;;1.52;;
30169;SDS011;46426;51.368;5.254;2023-07-28T01:56:18;1.80;;;1.45;;
30169;SDS011;46426;51.368;5.254;2023-07-28T01:56:50;1.40;;;1.20;;
30169;SDS011;46426;51.368;5.254;2023-07-28T01:57:22;2.35;;;1.63;;
30169;SDS011;46426;51.368;5.254;2023-07-28T01:57:59;1.50;;;1.40;;
30169;SDS011;46426;51.368;5.254;2023-07-28T01:58:32;1.50;;;1.40;;
30169;SDS011;46426;51.368;5.254;2023-07-28T01:59:04;2.00;;;1.80;;
30169;SDS011;46426;51.368;5.254;2023-07-28T01:59:37;1.58;;;1.48;;
30169;SDS011;46426;51.368;5.254;2023-07-28T02:00:10;1.67;;;1.58;;
30169;SDS011;46426;51.368;5.254;2023-07-28T02:00:45;1.70;;;1.60;;
30169;SDS011;46426;51.368;5.254;2023-07-28T02:01:18;1.45;;;1.35;;
30169;SDS011;46426;51.368;5.254;2023-07-28T02:01:50;2.47;;;1.58;;
30169;SDS011;46426;51.368;5.254;2023-07-28T02:02:22;1.60;;;1.35;;
30169;SDS011;46426;51.368;5.254;2023-07-28T02:02:54;1.50;;;1.40;;
30169;SDS011;46426;51.368;5.254;2023-07-28T02:03:27;1.50;;;1.40;;
30169;SDS011;46426;51.368;5.254;2023-07-28T02:03:59;2.25;;;1.65;;
30169;SDS011;46426;51.368;5.254;2023-07-28T02:04:31;1.80;;;1.50;;
30169;SDS011;46426;51.368;5.254;2023-07-28T02:05:03;1.80;;;1.30;;
30169;SDS011;46426;51.368;5.254;2023-07-28T02:05:35;1.50;;;1.40;;
30169;SDS011;46426;51.368;5.254;2023-07-28T02:06:08;2.38;;;1.40;;
30169;SDS011;46426;51.368;5.254;2023-07-28T02:06:40;1.40;;;1.30;;
30169;SDS011;46426;51.368;5.254;2023-07-28T02:07:12;1.70;;;1.60;;
30169;SDS011;46426;51.368;5.254;2023-07-28T02:07:44;1.77;;;1.67;;
30169;SDS011;46426;51.368;5.254;2023-07-28T02:08:16;1.85;;;1.55;;
30169;SDS011;46426;51.368;5.254;2023-07-28T02:08:48;1.38;;;1.27;;
30169;SDS011;46426;51.368;5.254;2023-07-28T02:09:20;2.00;;;1.40;;
30169;SDS011;46426;51.368;5.254;2023-07-28T02:09:53;1.55;;;1.42;;
30169;SDS011;46426;51.368;5.254;2023-07-28T02:10:28;1.30;;;1.20;;
30169;SDS011;46426;51.368;5.254;2023-07-28T02:11:01;1.80;;;1.67;;
30169;SDS011;46426;51.368;5.254;2023-07-28T02:11:33;1.90;;;1.20;;
30169;SDS011;46426;51.368;5.254;2023-07-28T02:12:05;2.08;;;1.50;;
30169;SDS011;46426;51.368;5.254;2023-07-28T02:12:38;2.03;;;1.63;;
30169;SDS011;46426;51.368;5.254;2023-07-28T02:13:10;1.65;;;1.55;;
30169;SDS011;46426;51.368;5.254;2023-07-28T02:13:42;1.60;;;1.50;;
30169;SDS011;46426;51.368;5.254;2023-07-28T02:14:19;1.45;;;1.35;;
30169;SDS011;46426;51.368;5.254;2023-07-28T02:14:51;1.55;;;1.45;;
30169;SDS011;46426;51.368;5.254;2023-07-28T02:15:23;1.67;;;1.58;;
30169;SDS011;46426;51.368;5.254;2023-07-28T02:15:55;1.60;;;1.50;;
30169;SDS011;46426;51.368;5.254;2023-07-28T02:16:27;1.38;;;1.27;;
30169;SDS011;46426;51.368;5.254;2023-07-28T02:17:00;1.98;;;1.48;;
30169;SDS011;46426;51.368;5.254;2023-07-28T02:17:32;1.50;;;1.40;;
30169;SDS011;46426;51.368;5.254;2023-07-28T02:18:05;1.48;;;1.38;;
30169;SDS011;46426;51.368;5.254;2023-07-28T02:18:37;1.70;;;1.60;;
30169;SDS011;46426;51.368;5.254;2023-07-28T02:19:09;3.47;;;1.77;;
30169;SDS011;46426;51.368;5.254;2023-07-28T02:19:41;1.60;;;1.50;;
30169;SDS011;46426;51.368;5.254;2023-07-28T02:20:14;1.80;;;1.50;;
30169;SDS011;46426;51.368;5.254;2023-07-28T02:20:47;1.98;;;1.73;;
30169;SDS011;46426;51.368;5.254;2023-07-28T02:21:20;1.80;;;1.70;;
30169;SDS011;46426;51.368;5.254;2023-07-28T02:21:53;3.08;;;1.55;;
30169;SDS011;46426;51.368;5.254;2023-07-28T02:22:25;1.55;;;1.45;;
30169;SDS011;46426;51.368;5.254;2023-07-28T02:22:57;1.88;;;1.50;;
30169;SDS011;46426;51.368;5.254;2023-07-28T02:23:29;1.48;;;1.15;;
30169;SDS011;46426;51.368;5.254;2023-07-28T02:24:02;3.00;;;1.50;;
30169;SDS011;46426;51.368;5.254;2023-07-28T02:24:34;2.60;;;1.75;;
30169;SDS011;46426;51.368;5.254;2023-07-28T02:25:06;2.55;;;1.70;;
30169;SDS011;46426;51.368;5.254;2023-07-28T02:25:39;3.92;;;1.85;;
30169;SDS011;46426;51.368;5.254;2023-07-28T02:26:11;2.38;;;1.58;;
30169;SDS011;46426;51.368;5.254;2023-07-28T02:26:44;1.80;;;1.70;;
30169;SDS011;46426;51.368;5.254;2023-07-28T02:27:16;1.60;;;1.50;;
30169;SDS011;46426;51.368;5.254;2023-07-28T02:27:48;1.30;;;1.20;;
30169;SDS011;46426;51.368;5.254;2023-07-28T02:28:21;3.28;;;1.90;;
30169;SDS011;46426;51.368;5.254;2023-07-28T02:28:54;2.13;;;1.50;;
30169;SDS011;46426;51.368;5.254;2023-07-28T02:29:26;4.15;;;1.70;;
30169;SDS011;46426;51.368;5.254;2023-07-28T02:29:58;1.42;;;1.33;;
30169;SDS011;46426;51.368;5.254;2023-07-28T02:30:30;2.10;;;1.70;;
30169;SDS011;46426;51.368;5.254;2023-07-28T02:31:02;2.28;;;1.63;;
30169;SDS011;46426;51.368;5.254;2023-07-28T02:31:35;1.77;;;1.67;;
30169;SDS011;46426;51.368;5.254;2023-07-28T02:32:07;1.65;;;1.50;;
30169;SDS011;46426;51.368;5.254;2023-07-28T02:32:39;2.05;;;1.75;;
30169;SDS011;46426;51.368;5.254;2023-07-28T02:33:11;2.03;;;1.65;;
30169;SDS011;46426;51.368;5.254;2023-07-28T02:33:44;1.70;;;1.60;;
30169;SDS011;46426;51.368;5.254;2023-07-28T02:34:16;3.13;;;1.70;;
30169;SDS011;46426;51.368;5.254;2023-07-28T02:34:48;2.72;;;1.48;;
30169;SDS011;46426;51.368;5.254;2023-07-28T02:35:20;1.73;;;1.42;;
30169;SDS011;46426;51.368;5.254;2023-07-28T02:35:53;2.83;;;1.60;;
30169;SDS011;46426;51.368;5.254;2023-07-28T02:36:25;1.83;;;1.65;;
30169;SDS011;46426;51.368;5.254;2023-07-28T02:37:06;1.63;;;1.38;;
30169;SDS011;46426;51.368;5.254;2023-07-28T02:38:28;2.03;;;1.63;;
30169;SDS011;46426;51.368;5.254;2023-07-28T02:39:19;1.90;;;1.55;;
30169;SDS011;46426;51.368;5.254;2023-07-28T02:39:52;1.90;;;1.67;;
30169;SDS011;46426;51.368;5.254;2023-07-28T02:40:25;1.77;;;1.65;;
30169;SDS011;46426;51.368;5.254;2023-07-28T02:40:58;1.80;;;1.70;;
30169;SDS011;46426;51.368;5.254;2023-07-28T02:41:31;1.58;;;1.48;;
30169;SDS011;46426;51.368;5.254;2023-07-28T02:42:03;1.95;;;1.65;;
30169;SDS011;46426;51.368;5.254;2023-07-28T02:42:35;1.70;;;1.60;;
30169;SDS011;46426;51.368;5.254;2023-07-28T02:43:07;1.67;;;1.42;;
30169;SDS011;46426;51.368;5.254;2023-07-28T02:43:39;2.08;;;1.42;;
30169;SDS011;46426;51.368;5.254;2023-07-28T02:44:12;1.65;;;1.50;;
30169;SDS011;46426;51.368;5.254;2023-07-28T02:44:44;1.80;;;1.70;;
30169;SDS011;46426;51.368;5.254;2023-07-28T02:45:16;1.75;;;1.65;;
30169;SDS011;46426;51.368;5.254;2023-07-28T02:45:55;1.83;;;1.67;;
30169;SDS011;46426;51.368;5.254;2023-07-28T02:46:28;1.50;;;1.40;;
30169;SDS011;46426;51.368;5.254;2023-07-28T02:47:00;1.95;;;1.75;;
30169;SDS011;46426;51.368;5.254;2023-07-28T02:47:32;1.95;;;1.77;;
30169;SDS011;46426;51.368;5.254;2023-07-28T02:48:05;1.77;;;1.67;;
30169;SDS011;46426;51.368;5.254;2023-07-28T02:48:37;1.73;;;1.50;;
30169;SDS011;46426;51.368;5.254;2023-07-28T02:49:09;2.03;;;1.83;;
30169;SDS011;46426;51.368;5.254;2023-07-28T02:49:41;2.08;;;1.92;;
30169;SDS011;46426;51.368;5.254;2023-07-28T02:50:15;1.80;;;1.70;;
30169;SDS011;46426;51.368;5.254;2023-07-28T02:50:47;1.70;;;1.58;;
30169;SDS011;46426;51.368;5.254;2023-07-28T02:51:19;1.85;;;1.73;;
30169;SDS011;46426;51.368;5.254;2023-07-28T02:51:51;2.75;;;1.90;;
30169;SDS011;46426;51.368;5.254;2023-07-28T02:52:24;1.60;;;1.50;;
30169;SDS011;46426;51.368;5.254;2023-07-28T02:52:56;2.50;;;1.60;;
30169;SDS011;46426;51.368;5.254;2023-07-28T02:53:28;1.70;;;1.60;;
30169;SDS011;46426;51.368;5.254;2023-07-28T02:54:00;1.80;;;1.63;;
30169;SDS011;46426;51.368;5.254;2023-07-28T02:54:35;2.00;;;1.50;;
30169;SDS011;46426;51.368;5.254;2023-07-28T02:55:07;4.70;;;1.95;;
30169;SDS011;46426;51.368;5.254;2023-07-28T02:55:42;1.90;;;1.80;;
30169;SDS011;46426;51.368;5.254;2023-07-28T02:56:15;1.60;;;1.50;;
30169;SDS011;46426;51.368;5.254;2023-07-28T02:56:47;1.70;;;1.60;;
30169;SDS011;46426;51.368;5.254;2023-07-28T02:57:19;1.63;;;1.52;;
30169;SDS011;46426;51.368;5.254;2023-07-28T02:57:52;2.30;;;1.50;;
30169;SDS011;46426;51.368;5.254;2023-07-28T02:58:24;2.03;;;1.80;;
30169;SDS011;46426;51.368;5.254;2023-07-28T02:58:57;1.58;;;1.48;;
30169;SDS011;46426;51.368;5.254;2023-07-28T02:59:29;2.38;;;1.73;;
30169;SDS011;46426;51.368;5.254;2023-07-28T03:00:01;2.50;;;1.70;;
30169;SDS011;46426;51.368;5.254;2023-07-28T03:00:38;1.70;;;1.60;;
30169;SDS011;46426;51.368;5.254;2023-07-28T03:01:12;2.67;;;2.00;;
30169;SDS011;46426;51.368;5.254;2023-07-28T03:01:44;1.83;;;1.73;;
30169;SDS011;46426;51.368;5.254;2023-07-28T03:02:16;1.80;;;1.70;;
30169;SDS011;46426;51.368;5.254;2023-07-28T03:02:48;1.70;;;1.60;;
30169;SDS011;46426;51.368;5.254;2023-07-28T03:03:21;1.67;;;1.58;;
30169;SDS011;46426;51.368;5.254;2023-07-28T03:03:53;1.90;;;1.70;;
30169;SDS011;46426;51.368;5.254;2023-07-28T03:04:25;1.88;;;1.67;;
30169;SDS011;46426;51.368;5.254;2023-07-28T03:05:33;2.15;;;1.90;;
30169;SDS011;46426;51.368;5.254;2023-07-28T03:06:31;2.10;;;1.80;;
30169;SDS011;46426;51.368;5.254;2023-07-28T03:07:04;2.05;;;1.85;;
30169;SDS011;46426;51.368;5.254;2023-07-28T03:07:36;2.45;;;2.10;;
30169;SDS011;46426;51.368;5.254;2023-07-28T03:08:11;2.40;;;2.20;;
30169;SDS011;46426;51.368;5.254;2023-07-28T03:08:44;1.95;;;1.77;;
30169;SDS011;46426;51.368;5.254;2023-07-28T03:09:40;2.08;;;1.80;;
30169;SDS011;46426;51.368;5.254;2023-07-28T03:10:13;2.17;;;1.85;;
30169;SDS011;46426;51.368;5.254;2023-07-28T03:10:48;2.13;;;1.80;;
30169;SDS011;46426;51.368;5.254;2023-07-28T03:11:20;2.58;;;1.98;;
30169;SDS011;46426;51.368;5.254;2023-07-28T03:11:53;1.80;;;1.70;;
30169;SDS011;46426;51.368;5.254;2023-07-28T03:12:25;3.13;;;2.05;;
30169;SDS011;46426;51.368;5.254;2023-07-28T03:12:57;2.10;;;1.90;;
30169;SDS011;46426;51.368;5.254;2023-07-28T03:13:29;2.45;;;2.10;;
30169;SDS011;46426;51.368;5.254;2023-07-28T03:14:02;2.30;;;2.03;;
30169;SDS011;46426;51.368;5.254;2023-07-28T03:14:34;2.70;;;1.88;;
30169;SDS011;46426;51.368;5.254;2023-07-28T03:15:07;2.70;;;1.98;;
30169;SDS011;46426;51.368;5.254;2023-07-28T03:15:39;2.00;;;1.80;;
30169;SDS011;46426;51.368;5.254;2023-07-28T03:16:12;2.10;;;1.90;;
30169;SDS011;46426;51.368;5.254;2023-07-28T03:16:44;1.75;;;1.63;;
30169;SDS011;46426;51.368;5.254;2023-07-28T03:17:16;2.95;;;1.90;;
30169;SDS011;46426;51.368;5.254;2023-07-28T03:17:49;2.38;;;2.10;;
30169;SDS011;46426;51.368;5.254;2023-07-28T03:18:21;1.92;;;1.83;;
30169;SDS011;46426;51.368;5.254;2023-07-28T03:18:53;2.40;;;2.20;;
30169;SDS011;46426;51.368;5.254;2023-07-28T03:19:25;2.17;;;1.90;;
30169;SDS011;46426;51.368;5.254;2023-07-28T03:19:58;3.05;;;2.13;;
30169;SDS011;46426;51.368;5.254;2023-07-28T03:20:30;2.97;;;2.05;;
30169;SDS011;46426;51.368;5.254;2023-07-28T03:21:02;2.53;;;2.15;;
30169;SDS011;46426;51.368;5.254;2023-07-28T03:21:34;2.28;;;2.00;;
30169;SDS011;46426;51.368;5.254;2023-07-28T03:22:10;2.47;;;2.28;;
30169;SDS011;46426;51.368;5.254;2023-07-28T03:22:43;3.13;;;1.77;;
30169;SDS011;46426;51.368;5.254;2023-07-28T03:23:15;2.22;;;2.00;;